Flight Track Log - Related Links

Times and Time Zones

All times are in EDT time to prevent confusion due to time zone crossing. See the GLA73V flight status page for this flight to view local times or setup timezone preferences in your user account.

Time Position Orientation Groundspeed Altitude Reporting Facility
EDT Latitude Longitude Course Direction KTS MPH feet Rate Location/Type
Sat 08:24:32 AM 40.4031 -109.4106 93° East 167 192 8,900  Level Salt Center
Sat 08:25:32 AM 40.4000 -109.3414 93° East 183 211 10,600 1,664 Climbing Salt Center
Sat 08:26:31 AM 40.4067 -109.2672 83° East 200 230 12,200 1,550 Climbing Denver Center
Sat 08:27:32 AM 40.4158 -109.1908 81° East 213 245 13,700 1,574 Climbing Denver Center
Sat 08:28:33 AM 40.4231 -109.0969 84° East 223 257 15,400 1,574 Climbing Salt Center
Sat 08:29:34 AM 40.4328 -109.0144 81° East 234 269 16,900 1,438 Climbing Salt Center
Sat 08:30:34 AM 40.4417 -108.9311 82° East 239 275 18,300 1,350 Climbing Salt Center
Sat 08:31:34 AM 40.4481 -108.8336 85° East 243 280 19,600 1,240 Climbing Salt Center
Sat 08:32:35 AM 40.4558 -108.7456 83° East 251 289 20,800 1,091 Climbing Salt Center
Sat 08:33:35 AM 40.4625 -108.6575 84° East 253 291 21,800 1,050 Climbing Salt Center
Sat 08:34:35 AM 40.4708 -108.5514 84° East 259 298 22,900 595 Climbing Salt Center
Sat 08:35:36 AM 40.4744 -108.4567 87° East 267 307 23,000 99 Climbing Salt Center
Sat 08:36:36 AM 40.4750 -108.3525 90° East 289 333 23,100  Climbing Salt Center
Sat 08:37:36 AM 40.4778 -108.2325 88° East 296 341 23,000 -50 Descending Salt Center
Sat 08:38:37 AM 40.4831 -108.1272 86° East 301 346 23,000  Level Salt Center
Sat 08:39:37 AM 40.4903 -108.0247 85° East 298 343 23,000  Level Salt Center
Sat 08:40:37 AM 40.4992 -107.9047 84° East 296 341 23,000 80 Level Salt Center
Sat 08:40:52 AM 40.5008 -107.8808 85° East 296 341 23,100  Climbing Denver Center
Sat 08:41:52 AM 40.5064 -107.7767 86° East 298 343 23,000 -50 Descending Denver Center
Sat 08:42:53 AM 40.5108 -107.6725 87° East 298 343 23,000 50 Level Denver Center
Sat 08:43:53 AM 40.5147 -107.5511 88° East 297 342 23,100  Climbing Denver Center
Sat 08:44:54 AM 40.5181 -107.4481 88° East 295 339 23,000 -49 Descending Denver Center
Sat 08:45:55 AM 40.5203 -107.3406 88° East 305 351 23,000  Level Denver Center
Sat 08:46:55 AM 40.5228 -107.2194 88° East 300 345 23,000 50 Level Denver Center
Sat 08:47:56 AM 40.5253 -107.1117 88° East 303 349 23,100  Climbing Denver Center
Sat 08:48:57 AM 40.5258 -107.0006 90° East 302 348 23,000 -50 Descending Denver Center
Sat 08:49:57 AM 40.5269 -106.8931 89° East 297 342 23,000 50 Level Denver Center
Sat 08:50:58 AM 40.5269 -106.7844 90° East 296 341 23,100  Climbing Denver Center
Sat 08:51:59 AM 40.5278 -106.6753 89° East 297 342 23,000  Descending Denver Center
Sat 08:52:59 AM 40.5231 -106.5661 93° East 299 344 23,100 50 Climbing Denver Center
Sat 08:54:00 AM 40.5169 -106.4547 94° East 299 344 23,100  Level Denver Center
Sat 08:55:01 AM 40.5094 -106.3506 95° East 299 344 23,100  Level Denver Center
Sat 08:56:01 AM 40.5069 -106.2472 92° East 295 339 23,100  Level Denver Center
Sat 08:57:02 AM 40.5042 -106.1322 92° East 295 339 23,100 -590 Level Denver Center
Sat 08:58:03 AM 40.5078 -106.0244 87° East 293 337 21,900 -1,475 Descending Denver Center
Sat 08:59:04 AM 40.5089 -105.9181 89° East 289 333 20,100 -1,934 Descending Denver Center
Sat 09:00:04 AM 40.5117 -105.8111 88° East 289 333 18,000 -1,488 Descending Denver Center
Sat 09:01:05 AM 40.5111 -105.7036 90° East 294 338 17,100 -443 Descending Denver Center
Sat 09:02:06 AM 40.4900 -105.6053 106° East 297 342 17,100  Level Denver Center
Sat 09:03:19 AM 40.4328 -105.5314 135° Southeast 288 331 17,100 -496 Level Denver Center
Sat 09:04:19 AM 40.3911 -105.4108 114° Southeast 305 351 16,000 -1,289 Descending Denver Center
Sat 09:05:20 AM 40.3644 -105.2994 107° East 298 343 14,500 -1,328 Descending Denver Center
Sat 09:06:21 AM 40.3436 -105.2000 105° East 285 328 13,300 -694 Descending Denver Center
Sat 09:07:21 AM 40.3233 -105.1044 106° East 274 315 13,100 -298 Descending Denver Center
Sat 09:08:22 AM 40.2964 -105.0147 111° Southeast 271 312 12,700 -639 Descending Denver Center
Sat 09:09:23 AM 40.2567 -104.9303 122° Southeast 275 316 11,800 -1,041 Descending Denver Center
Sat 09:10:23 AM 40.2139 -104.8467 124° Southeast 278 320 10,600 -1,140 Descending Denver Center
Sat 09:11:24 AM 40.1519 -104.7881 144° Southeast 271 312 9,500 -1,230 Descending Denver Center
Sat 09:12:25 AM 40.0800 -104.7361 151° Southeast 274 315 8,100 -1,091 Descending Denver Center
Sat 09:13:25 AM 40.0106 -104.7008 159° South 267 307 7,300 -893 Descending Denver Center
Sat 09:14:26 AM 39.9447 -104.6956 176° South 236 272 6,300 -885 Descending Denver Center
Sat 09:15:27 AM 39.8964 -104.6956 180° South 178 205 5,500 -787 Descending Denver Center
Sat 09:17:00 AM 39.8617 -104.6732 134° Southeast  Level Estimated
Sat 09:24:00 AM 39.8617 -104.6732 346° North  Level Estimated
Sat 09:25:00 AM 39.8617 -104.6732 346° North  Level Estimated
Sat 09:26:00 AM 39.8617 -104.6732 346° North  Level Estimated

Login

Don't have an account? Register now (free) for customized features, flight alerts, and more!